Time;durP1;ratioP1;P1;durP2;ratioP2;P2;SDS_P1;SDS_P2;PMS_P1;PMS_P2;Temp;Humidity;BMP_temperature;BMP_pressure;BME280_temperature;BME280_humidity;BME280_pressure;Samples;Min_cycle;Max_cycle;Signal;HPM_P1;HPM_P2
2022/07/23 00:01:35;;;;;;;7.45;2.65;;;;;;;;;;5128797;27;20047;-72
2022/07/23 00:04:01;;;;;;;6.10;2.83;;;;;;;;;;5129066;27;20043;-72
2022/07/23 00:06:27;;;;;;;9.25;2.90;;;;;;;;;;5126832;27;20446;-72
2022/07/23 00:08:53;;;;;;;6.30;2.60;;;;;;;;;;5128777;27;20040;-72
2022/07/23 00:11:21;;;;;;;6.75;2.95;;;;;;;;;;5129042;27;20063;-73
2022/07/23 00:13:47;;;;;;;6.10;2.40;;;;;;;;;;5127874;27;20043;-72
2022/07/23 00:16:13;;;;;;;10.93;2.70;;;;;;;;;;5128007;27;20061;-72
2022/07/23 00:18:39;;;;;;;4.88;2.25;;;;;;;;;;5129532;27;20476;-74
2022/07/23 00:21:05;;;;;;;7.22;2.25;;;;;;;;;;5128309;27;20048;-71
2022/07/23 00:23:31;;;;;;;7.63;2.25;;;;;;;;;;5132326;27;20067;-71
2022/07/23 00:25:58;;;;;;;7.90;2.40;;;;;;;;;;5127910;27;20047;-71
2022/07/23 00:28:24;;;;;;;7.65;2.30;;;;;;;;;;5128823;27;20043;-72
2022/07/23 00:30:50;;;;;;;8.73;2.63;;;;;;;;;;5128052;27;20042;-72
2022/07/23 00:33:16;;;;;;;6.35;2.63;;;;;;;;;;5128530;27;20047;-74
2022/07/23 00:35:42;;;;;;;5.85;2.40;;;;;;;;;;5128824;27;20081;-71
2022/07/23 00:38:09;;;;;;;5.10;2.30;;;;;;;;;;5126944;27;20488;-71
2022/07/23 00:40:36;;;;;;;6.15;2.13;;;;;;;;;;5123954;27;20049;-72
2022/07/23 00:43:02;;;;;;;5.95;2.20;;;;;;;;;;5127256;27;20103;-73
2022/07/23 00:45:30;;;;;;;8.55;2.38;;;;;;;;;;5127909;27;20091;-72
2022/07/23 00:47:56;;;;;;;7.47;2.47;;;;;;;;;;5119128;27;20047;-71
2022/07/23 00:50:22;;;;;;;7.63;2.60;;;;;;;;;;5114351;27;20035;-72
2022/07/23 00:52:48;;;;;;;6.13;2.40;;;;;;;;;;5127231;27;20084;-72
2022/07/23 00:55:14;;;;;;;5.13;2.28;;;;;;;;;;5134001;27;20039;-73
2022/07/23 00:57:41;;;;;;;5.25;2.45;;;;;;;;;;5116521;27;20055;-74
2022/07/23 01:00:08;;;;;;;6.50;2.55;;;;;;;;;;5125209;27;20042;-72
2022/07/23 01:02:34;;;;;;;8.50;2.67;;;;;;;;;;5131216;27;20043;-71
2022/07/23 01:05:01;;;;;;;6.32;2.60;;;;;;;;;;5134385;27;20046;-72
2022/07/23 01:07:27;;;;;;;6.45;2.45;;;;;;;;;;5132130;27;20118;-72
2022/07/23 01:09:54;;;;;;;6.07;2.70;;;;;;;;;;5135192;27;20039;-71
2022/07/23 01:12:20;;;;;;;7.88;2.63;;;;;;;;;;5132247;27;20068;-72
2022/07/23 01:14:54;;;;;;;10.32;3.10;;;;;;;;;;5110456;27;20055;-72
2022/07/23 01:17:20;;;;;;;5.32;2.80;;;;;;;;;;5130407;27;20461;-72
2022/07/23 01:19:46;;;;;;;6.88;2.85;;;;;;;;;;5131438;27;20042;-73
2022/07/23 01:22:12;;;;;;;6.70;3.05;;;;;;;;;;5131821;27;20035;-72
2022/07/23 01:24:38;;;;;;;8.57;2.92;;;;;;;;;;5135443;27;20037;-72
2022/07/23 01:27:05;;;;;;;7.53;3.10;;;;;;;;;;5134406;27;20036;-72
2022/07/23 01:29:31;;;;;;;6.18;2.70;;;;;;;;;;5126675;27;20405;-72
2022/07/23 01:31:57;;;;;;;6.32;2.88;;;;;;;;;;5135858;27;20044;-71
2022/07/23 01:34:23;;;;;;;6.63;3.05;;;;;;;;;;5119996;27;20047;-72
2022/07/23 01:36:49;;;;;;;10.48;3.17;;;;;;;;;;5087717;28;20044;-72
2022/07/23 01:39:15;;;;;;;7.15;2.90;;;;;;;;;;5127956;27;20112;-75
2022/07/23 01:41:41;;;;;;;6.57;2.97;;;;;;;;;;5118003;27;20039;-72
2022/07/23 01:44:07;;;;;;;5.50;2.85;;;;;;;;;;5134304;27;20121;-71
2022/07/23 01:46:33;;;;;;;8.32;2.85;;;;;;;;;;5133949;27;20062;-72
2022/07/23 01:48:59;;;;;;;5.47;3.15;;;;;;;;;;5130818;27;20077;-73
2022/07/23 01:51:26;;;;;;;8.77;3.20;;;;;;;;;;5131687;27;20565;-72
2022/07/23 01:53:54;;;;;;;6.47;3.20;;;;;;;;;;5132412;27;20047;-72
2022/07/23 01:56:20;;;;;;;8.10;2.88;;;;;;;;;;5130243;27;20043;-71
2022/07/23 01:58:47;;;;;;;7.88;3.03;;;;;;;;;;5114718;28;20070;-72
2022/07/23 02:01:13;;;;;;;7.00;3.15;;;;;;;;;;5101311;28;20392;-72
2022/07/23 02:03:39;;;;;;;6.97;3.15;;;;;;;;;;5133056;28;20051;-72
2022/07/23 02:06:05;;;;;;;7.57;3.20;;;;;;;;;;5131708;28;20042;-73
2022/07/23 02:08:31;;;;;;;6.90;3.53;;;;;;;;;;5133691;28;20043;-71
2022/07/23 02:10:57;;;;;;;8.65;3.90;;;;;;;;;;5131334;27;20512;-72
2022/07/23 02:13:23;;;;;;;8.75;3.47;;;;;;;;;;5134082;27;20074;-71
2022/07/23 02:15:49;;;;;;;10.77;3.78;;;;;;;;;;5118589;27;20055;-71
2022/07/23 02:18:15;;;;;;;9.75;3.88;;;;;;;;;;5131605;27;20040;-72
2022/07/23 02:20:42;;;;;;;11.50;4.32;;;;;;;;;;5132892;27;20062;-72
2022/07/23 02:23:08;;;;;;;7.97;4.20;;;;;;;;;;5131255;27;20400;-72
2022/07/23 02:25:34;;;;;;;9.40;4.32;;;;;;;;;;5133502;27;20035;-72
2022/07/23 02:28:01;;;;;;;10.02;4.43;;;;;;;;;;5133647;28;20041;-73
2022/07/23 02:30:27;;;;;;;8.45;3.75;;;;;;;;;;5134307;28;20058;-71
2022/07/23 02:32:53;;;;;;;8.65;4.28;;;;;;;;;;5133923;28;20044;-72
2022/07/23 02:35:19;;;;;;;9.13;4.13;;;;;;;;;;5131913;27;20046;-72
2022/07/23 02:37:45;;;;;;;7.32;4.40;;;;;;;;;;5133049;28;20088;-72
2022/07/23 02:40:11;;;;;;;8.52;4.70;;;;;;;;;;5134196;28;20039;-72
2022/07/23 02:42:37;;;;;;;10.82;4.65;;;;;;;;;;5133741;28;20089;-72
2022/07/23 02:45:03;;;;;;;9.65;4.15;;;;;;;;;;5134195;28;20039;-72
2022/07/23 02:47:31;;;;;;;7.63;4.55;;;;;;;;;;5133745;28;20046;-71
2022/07/23 02:49:58;;;;;;;8.60;5.10;;;;;;;;;;5129581;27;20047;-72
2022/07/23 02:52:24;;;;;;;8.35;4.78;;;;;;;;;;5132909;27;20400;-73
2022/07/23 02:54:50;;;;;;;8.02;4.53;;;;;;;;;;5131083;27;20048;-71
2022/07/23 02:57:16;;;;;;;10.07;4.30;;;;;;;;;;5132707;28;20051;-72
2022/07/23 02:59:42;;;;;;;9.95;3.97;;;;;;;;;;5134433;28;20488;-71
2022/07/23 03:02:08;;;;;;;7.18;4.10;;;;;;;;;;5134318;28;20098;-72
2022/07/23 03:04:34;;;;;;;6.50;4.30;;;;;;;;;;5127523;28;20047;-71
2022/07/23 03:07:00;;;;;;;6.75;4.18;;;;;;;;;;5134675;28;20035;-72
2022/07/23 03:09:26;;;;;;;6.10;4.10;;;;;;;;;;5133203;28;20450;-71
2022/07/23 03:11:52;;;;;;;8.02;4.35;;;;;;;;;;5133216;27;20512;-71
2022/07/23 03:14:18;;;;;;;8.65;4.18;;;;;;;;;;5132071;27;20054;-72
2022/07/23 03:16:44;;;;;;;8.93;4.47;;;;;;;;;;5135439;27;20039;-73
2022/07/23 03:19:10;;;;;;;9.20;4.10;;;;;;;;;;5116608;27;20073;-72
2022/07/23 03:21:40;;;;;;;8.40;4.55;;;;;;;;;;5119127;27;20062;-72
2022/07/23 03:24:06;;;;;;;8.73;4.05;;;;;;;;;;5136729;27;20043;-71
2022/07/23 03:26:32;;;;;;;10.05;4.45;;;;;;;;;;5137079;27;20500;-72
2022/07/23 03:28:58;;;;;;;10.35;4.65;;;;;;;;;;5134263;27;20039;-71
2022/07/23 03:31:24;;;;;;;8.05;4.55;;;;;;;;;;5134149;27;20412;-72
2022/07/23 03:33:50;;;;;;;8.57;4.60;;;;;;;;;;5129690;27;20455;-71
2022/07/23 03:36:16;;;;;;;10.07;5.07;;;;;;;;;;5134905;27;20058;-72
2022/07/23 03:38:42;;;;;;;8.23;4.47;;;;;;;;;;5133307;27;20039;-72
2022/07/23 03:41:08;;;;;;;11.73;5.07;;;;;;;;;;5134006;27;20049;-72
2022/07/23 03:43:34;;;;;;;8.52;5.18;;;;;;;;;;5132566;27;20559;-73
2022/07/23 03:46:00;;;;;;;9.88;5.15;;;;;;;;;;5131516;27;20055;-72
2022/07/23 03:48:26;;;;;;;8.48;4.88;;;;;;;;;;5097940;28;20059;-72
2022/07/23 03:50:53;;;;;;;14.75;5.18;;;;;;;;;;5117147;27;20404;-72
2022/07/23 03:53:19;;;;;;;10.77;5.60;;;;;;;;;;5135041;27;20058;-71
2022/07/23 03:55:45;;;;;;;9.07;5.05;;;;;;;;;;5134908;27;20039;-72
2022/07/23 03:58:11;;;;;;;8.63;4.95;;;;;;;;;;5136530;27;20050;-72
2022/07/23 04:00:37;;;;;;;12.70;4.93;;;;;;;;;;5129762;27;20119;-72
2022/07/23 04:03:03;;;;;;;10.20;4.93;;;;;;;;;;5133487;27;20043;-72
2022/07/23 04:05:29;;;;;;;9.23;5.30;;;;;;;;;;5136611;27;20053;-73
2022/07/23 04:07:55;;;;;;;10.25;5.32;;;;;;;;;;5130007;27;20039;-72
2022/07/23 04:10:21;;;;;;;9.20;4.82;;;;;;;;;;5125395;27;20036;-73
2022/07/23 04:12:47;;;;;;;10.32;5.30;;;;;;;;;;5134972;27;20051;-71
2022/07/23 04:15:13;;;;;;;9.65;5.18;;;;;;;;;;5131081;27;20039;-70
2022/07/23 04:17:39;;;;;;;8.80;5.13;;;;;;;;;;5132215;27;20046;-72
2022/07/23 04:20:06;;;;;;;8.10;5.18;;;;;;;;;;5129363;27;20032;-71
2022/07/23 04:22:32;;;;;;;11.85;5.28;;;;;;;;;;5129898;27;20035;-72
2022/07/23 04:24:58;;;;;;;8.23;5.28;;;;;;;;;;5135017;27;20043;-72
2022/07/23 04:27:24;;;;;;;8.57;5.38;;;;;;;;;;5134141;27;20039;-72
2022/07/23 04:29:50;;;;;;;9.50;5.95;;;;;;;;;;5132100;27;20039;-72
2022/07/23 04:32:16;;;;;;;9.27;6.07;;;;;;;;;;5116334;27;20048;-71
2022/07/23 04:34:42;;;;;;;10.65;5.68;;;;;;;;;;5121684;27;20040;-73
2022/07/23 04:37:08;;;;;;;9.27;6.20;;;;;;;;;;5131513;27;20430;-72
2022/07/23 04:39:34;;;;;;;12.10;6.00;;;;;;;;;;5120809;27;20400;-72
2022/07/23 04:42:00;;;;;;;11.07;4.70;;;;;;;;;;5134798;27;20055;-73
2022/07/23 04:44:26;;;;;;;12.52;5.30;;;;;;;;;;5128043;27;20526;-72
2022/07/23 04:46:52;;;;;;;12.93;4.93;;;;;;;;;;5124732;27;20386;-73
2022/07/23 04:49:18;;;;;;;7.30;4.80;;;;;;;;;;5134228;27;20063;-73
2022/07/23 04:51:44;;;;;;;11.05;4.75;;;;;;;;;;5133053;27;20051;-72
2022/07/23 04:54:10;;;;;;;9.10;4.85;;;;;;;;;;5134354;27;20051;-71
2022/07/23 04:56:36;;;;;;;11.30;4.60;;;;;;;;;;5127342;27;20051;-72
2022/07/23 04:59:02;;;;;;;9.15;4.43;;;;;;;;;;5096270;28;20040;-72
2022/07/23 05:01:28;;;;;;;9.52;4.68;;;;;;;;;;5133219;27;20055;-72
2022/07/23 05:03:54;;;;;;;9.88;4.70;;;;;;;;;;5134586;27;20113;-71
2022/07/23 05:06:20;;;;;;;9.85;4.80;;;;;;;;;;5134951;27;20050;-72
2022/07/23 05:08:46;;;;;;;9.30;4.53;;;;;;;;;;5131936;27;20043;-71
2022/07/23 05:11:12;;;;;;;11.15;4.80;;;;;;;;;;5126094;27;20038;-73
2022/07/23 05:13:38;;;;;;;12.48;4.28;;;;;;;;;;5132936;27;20047;-71
2022/07/23 05:16:04;;;;;;;10.18;4.18;;;;;;;;;;5130397;27;20172;-72
2022/07/23 05:18:30;;;;;;;9.52;4.38;;;;;;;;;;5133158;27;20046;-72
2022/07/23 05:20:56;;;;;;;10.48;4.60;;;;;;;;;;5131296;27;20031;-72
2022/07/23 05:23:22;;;;;;;12.60;4.55;;;;;;;;;;5134353;27;20035;-71
2022/07/23 05:25:49;;;;;;;12.32;4.47;;;;;;;;;;5114512;27;20066;-73
2022/07/23 05:28:15;;;;;;;11.48;4.38;;;;;;;;;;5143115;27;20046;-71
2022/07/23 05:30:41;;;;;;;12.27;4.35;;;;;;;;;;5139171;27;20155;-72
2022/07/23 05:33:08;;;;;;;15.93;4.85;;;;;;;;;;5087185;28;20075;-72
2022/07/23 05:35:34;;;;;;;17.75;4.60;;;;;;;;;;5078413;28;20039;-72
2022/07/23 05:38:00;;;;;;;12.27;3.95;;;;;;;;;;5114162;28;20043;-72
2022/07/23 05:40:26;;;;;;;12.73;4.03;;;;;;;;;;5129046;27;20035;-73
2022/07/23 05:42:52;;;;;;;10.40;3.85;;;;;;;;;;5128101;27;20092;-73
2022/07/23 05:45:18;;;;;;;10.98;4.07;;;;;;;;;;5133692;27;20074;-72
2022/07/23 05:47:45;;;;;;;10.20;3.40;;;;;;;;;;5118974;27;20189;-72
2022/07/23 05:50:12;;;;;;;8.50;3.22;;;;;;;;;;5134258;27;20047;-72
2022/07/23 05:52:38;;;;;;;8.98;2.80;;;;;;;;;;5133581;27;20039;-73
2022/07/23 05:55:05;;;;;;;8.20;2.60;;;;;;;;;;5134014;27;20427;-73
2022/07/23 05:57:31;;;;;;;9.50;2.75;;;;;;;;;;5134258;27;20055;-73
2022/07/23 05:59:57;;;;;;;7.38;2.88;;;;;;;;;;5133803;28;20173;-72
2022/07/23 06:02:23;;;;;;;8.05;2.30;;;;;;;;;;5121868;28;20106;-72
2022/07/23 06:04:49;;;;;;;6.18;2.38;;;;;;;;;;5122316;27;20116;-73
2022/07/23 06:07:15;;;;;;;8.50;2.30;;;;;;;;;;5134281;28;20089;-73
2022/07/23 06:09:41;;;;;;;7.15;2.30;;;;;;;;;;5114606;28;20035;-72
2022/07/23 06:12:07;;;;;;;7.57;2.20;;;;;;;;;;5132336;27;20481;-73
2022/07/23 06:14:33;;;;;;;6.10;2.10;;;;;;;;;;5148448;27;20054;-73
2022/07/23 06:17:00;;;;;;;6.45;2.08;;;;;;;;;;5109683;28;20481;-73
2022/07/23 06:19:26;;;;;;;6.32;1.70;;;;;;;;;;5127750;28;20403;-73
2022/07/23 06:21:52;;;;;;;7.13;1.88;;;;;;;;;;5123345;28;20044;-74
2022/07/23 06:24:18;;;;;;;7.65;1.50;;;;;;;;;;5129102;28;20047;-71
2022/07/23 06:26:44;;;;;;;7.60;1.60;;;;;;;;;;5122054;28;20031;-72
2022/07/23 06:29:10;;;;;;;5.97;1.60;;;;;;;;;;5127683;28;20042;-72
2022/07/23 06:31:36;;;;;;;5.88;1.35;;;;;;;;;;5115152;28;20044;-72
2022/07/23 06:34:03;;;;;;;7.75;1.52;;;;;;;;;;5126487;28;20031;-72
2022/07/23 06:36:29;;;;;;;7.60;1.50;;;;;;;;;;5118615;28;20054;-72
2022/07/23 06:38:55;;;;;;;6.03;1.40;;;;;;;;;;5131368;28;20035;-71
2022/07/23 06:41:22;;;;;;;5.30;1.17;;;;;;;;;;5132489;28;20095;-72
2022/07/23 06:43:48;;;;;;;4.35;1.10;;;;;;;;;;5127133;28;20055;-71
2022/07/23 06:46:14;;;;;;;4.15;1.10;;;;;;;;;;5115744;28;20089;-71
2022/07/23 06:48:40;;;;;;;5.35;1.20;;;;;;;;;;5135116;27;20047;-71
2022/07/23 06:51:06;;;;;;;4.68;1.13;;;;;;;;;;5132284;27;20054;-71
2022/07/23 06:53:32;;;;;;;9.43;1.45;;;;;;;;;;5135911;27;20060;-72
2022/07/23 06:55:58;;;;;;;7.80;1.88;;;;;;;;;;5131218;27;20403;-72
2022/07/23 06:58:24;;;;;;;5.00;1.10;;;;;;;;;;5130522;27;20040;-72
2022/07/23 07:00:51;;;;;;;6.60;1.30;;;;;;;;;;5126236;27;20088;-71
2022/07/23 07:03:18;;;;;;;4.40;1.00;;;;;;;;;;5136546;27;20108;-71
2022/07/23 07:05:44;;;;;;;5.70;1.10;;;;;;;;;;5135800;27;20050;-71
2022/07/23 07:08:10;;;;;;;5.32;0.82;;;;;;;;;;5136312;27;20047;-72
2022/07/23 07:10:36;;;;;;;6.50;1.23;;;;;;;;;;5136092;27;20051;-72
2022/07/23 07:13:02;;;;;;;5.88;0.90;;;;;;;;;;5135871;27;20043;-72
2022/07/23 07:15:28;;;;;;;4.07;0.95;;;;;;;;;;5136652;27;20096;-71
2022/07/23 07:17:54;;;;;;;4.70;0.93;;;;;;;;;;5127428;27;20036;-71
2022/07/23 07:20:20;;;;;;;3.90;1.00;;;;;;;;;;5134412;27;20101;-71
2022/07/23 07:22:46;;;;;;;4.50;1.02;;;;;;;;;;5131332;27;20047;-71
2022/07/23 07:25:12;;;;;;;3.47;0.90;;;;;;;;;;5132302;27;20222;-71
2022/07/23 07:27:38;;;;;;;4.38;0.85;;;;;;;;;;5124733;27;20524;-72
2022/07/23 07:30:05;;;;;;;5.70;1.08;;;;;;;;;;5135104;27;20043;-71
2022/07/23 07:32:32;;;;;;;7.00;1.10;;;;;;;;;;5122467;27;20043;-71
2022/07/23 07:34:58;;;;;;;2.92;0.70;;;;;;;;;;5126683;27;20051;-71
2022/07/23 07:37:24;;;;;;;3.65;0.85;;;;;;;;;;5109753;27;20043;-71
2022/07/23 07:39:50;;;;;;;3.42;0.80;;;;;;;;;;5112944;27;20065;-71
2022/07/23 07:42:16;;;;;;;3.92;0.70;;;;;;;;;;5128756;27;20035;-72
2022/07/23 07:44:42;;;;;;;5.40;0.63;;;;;;;;;;5125577;27;20418;-70
2022/07/23 07:47:08;;;;;;;5.50;0.80;;;;;;;;;;5117432;27;20058;-72
2022/07/23 07:49:34;;;;;;;2.17;0.55;;;;;;;;;;5115417;27;20047;-71
2022/07/23 07:52:00;;;;;;;3.90;0.77;;;;;;;;;;5115925;27;20127;-71
2022/07/23 07:54:27;;;;;;;2.90;0.60;;;;;;;;;;5134734;27;20046;-72
2022/07/23 07:56:53;;;;;;;3.45;0.80;;;;;;;;;;5127954;27;20043;-70
2022/07/23 07:59:19;;;;;;;3.55;0.80;;;;;;;;;;5118583;27;20042;-71
2022/07/23 08:01:45;;;;;;;3.10;0.60;;;;;;;;;;5135403;27;20046;-71
2022/07/23 08:04:11;;;;;;;1.92;0.50;;;;;;;;;;5135608;27;20043;-71
2022/07/23 08:06:38;;;;;;;4.10;0.60;;;;;;;;;;5120779;27;20047;-71
2022/07/23 08:09:04;;;;;;;5.75;0.77;;;;;;;;;;5135275;27;20104;-70
2022/07/23 08:11:30;;;;;;;4.82;0.80;;;;;;;;;;5134710;27;20047;-71
2022/07/23 08:13:56;;;;;;;2.63;0.50;;;;;;;;;;5134309;27;20039;-70
2022/07/23 08:16:22;;;;;;;3.95;0.70;;;;;;;;;;5135357;27;20091;-71
2022/07/23 08:18:48;;;;;;;4.07;0.70;;;;;;;;;;5131626;27;20071;-71
2022/07/23 08:21:14;;;;;;;2.30;0.50;;;;;;;;;;5133702;27;20046;-72
2022/07/23 08:23:40;;;;;;;2.45;0.57;;;;;;;;;;5121116;27;20047;-72
2022/07/23 08:26:06;;;;;;;4.10;0.73;;;;;;;;;;5126371;27;20047;-71
2022/07/23 08:28:33;;;;;;;3.60;0.50;;;;;;;;;;5134532;27;20043;-72
2022/07/23 08:30:59;;;;;;;2.30;0.60;;;;;;;;;;5133618;27;20035;-71
2022/07/23 08:33:25;;;;;;;4.05;0.70;;;;;;;;;;5118765;27;20099;-70
2022/07/23 08:35:52;;;;;;;3.38;0.70;;;;;;;;;;5133857;27;20053;-71
2022/07/23 08:38:22;;;;;;;3.63;0.60;;;;;;;;;;5122297;27;20465;-71
2022/07/23 08:40:49;;;;;;;4.18;0.60;;;;;;;;;;5121879;27;20039;-70
2022/07/23 08:43:16;;;;;;;7.03;1.02;;;;;;;;;;5134780;27;20096;-71
2022/07/23 08:45:43;;;;;;;3.42;0.75;;;;;;;;;;5132984;27;20043;-72
2022/07/23 08:48:16;;;;;;;2.35;0.60;;;;;;;;;;5133205;27;20055;-71
2022/07/23 08:50:47;;;;;;;4.88;0.70;;;;;;;;;;5126952;27;20055;-70
2022/07/23 08:53:13;;;;;;;2.67;0.75;;;;;;;;;;5118010;27;20036;-71
2022/07/23 08:55:40;;;;;;;3.88;0.75;;;;;;;;;;5123615;27;20038;-72
2022/07/23 08:58:06;;;;;;;3.60;0.77;;;;;;;;;;5108131;27;20049;-71
2022/07/23 09:00:33;;;;;;;3.65;0.80;;;;;;;;;;5133108;27;20043;-71
2022/07/23 09:02:59;;;;;;;2.22;0.60;;;;;;;;;;5126521;27;20050;-71
2022/07/23 09:05:25;;;;;;;3.03;0.70;;;;;;;;;;5124700;27;20035;-72
2022/07/23 09:08:04;;;;;;;1.63;0.50;;;;;;;;;;5128786;27;20043;-70
2022/07/23 09:10:31;;;;;;;2.05;0.50;;;;;;;;;;5130425;27;20053;-71
2022/07/23 09:12:57;;;;;;;0.85;0.50;;;;;;;;;;5124012;27;20065;-71
2022/07/23 09:15:23;;;;;;;2.10;0.50;;;;;;;;;;5118922;27;20108;-71
2022/07/23 09:17:49;;;;;;;4.03;0.60;;;;;;;;;;5115916;27;20040;-72
2022/07/23 09:20:17;;;;;;;3.78;0.68;;;;;;;;;;5128823;27;20408;-71
2022/07/23 09:22:46;;;;;;;2.22;0.57;;;;;;;;;;5110877;27;20412;-71
2022/07/23 09:25:15;;;;;;;3.35;0.60;;;;;;;;;;5122783;27;20070;-72
2022/07/23 09:27:49;;;;;;;2.28;0.40;;;;;;;;;;5122969;27;20035;-72
2022/07/23 09:30:16;;;;;;;2.17;0.55;;;;;;;;;;5133383;27;20388;-71
2022/07/23 09:32:42;;;;;;;2.47;0.55;;;;;;;;;;5128089;27;20035;-70
2022/07/23 09:35:08;;;;;;;4.00;0.60;;;;;;;;;;5127955;27;20437;-70
2022/07/23 09:37:34;;;;;;;3.58;0.60;;;;;;;;;;5125922;27;20035;-73
2022/07/23 09:40:05;;;;;;;3.20;1.00;;;;;;;;;;5113165;27;20042;-72
2022/07/23 09:42:31;;;;;;;3.28;0.43;;;;;;;;;;5098883;27;20493;-72
2022/07/23 09:44:57;;;;;;;4.45;0.40;;;;;;;;;;5132577;27;20512;-71
2022/07/23 09:47:24;;;;;;;2.47;0.50;;;;;;;;;;5134093;27;20087;-70
2022/07/23 09:50:04;;;;;;;2.78;0.70;;;;;;;;;;5132878;27;20458;-71
2022/07/23 09:52:31;;;;;;;2.17;0.70;;;;;;;;;;5131646;27;20043;-70
2022/07/23 09:55:05;;;;;;;1.60;0.50;;;;;;;;;;5132779;27;20084;-70
2022/07/23 09:57:32;;;;;;;3.35;0.60;;;;;;;;;;5126916;27;20583;-71
2022/07/23 10:00:00;;;;;;;3.00;0.60;;;;;;;;;;5132332;27;20078;-71
2022/07/23 10:02:28;;;;;;;2.22;0.40;;;;;;;;;;5128059;28;20519;-72
2022/07/23 10:04:55;;;;;;;4.22;0.60;;;;;;;;;;5125510;28;20396;-71
2022/07/23 10:07:23;;;;;;;7.95;0.77;;;;;;;;;;5128344;28;20043;-71
2022/07/23 10:09:52;;;;;;;2.75;0.60;;;;;;;;;;5119099;28;20404;-72
2022/07/23 10:14:47;;;;;;;2.58;0.68;;;;;;;;;;5132507;28;20186;-71
2022/07/23 10:17:14;;;;;;;4.03;0.60;;;;;;;;;;5131318;27;20047;-71
2022/07/23 10:19:40;;;;;;;2.33;0.65;;;;;;;;;;5122532;28;20044;-71
2022/07/23 10:22:10;;;;;;;1.20;0.40;;;;;;;;;;5123914;27;20370;-73
2022/07/23 10:24:38;;;;;;;1.55;0.50;;;;;;;;;;5137385;27;20043;-72
2022/07/23 10:27:20;;;;;;;2.53;0.70;;;;;;;;;;5136336;27;20047;-72
2022/07/23 10:29:51;;;;;;;1.50;0.60;;;;;;;;;;5138733;27;20426;-72
2022/07/23 10:32:17;;;;;;;;;;;;;;;;;;5137867;27;20043;-71
2022/07/23 10:34:43;;;;;;;3.80;0.70;;;;;;;;;;5138290;27;19988;-71
2022/07/23 10:37:23;;;;;;;8.05;0.80;;;;;;;;;;5135968;27;20050;-70
2022/07/23 10:40:08;;;;;;;2.40;0.47;;;;;;;;;;5107409;27;20035;-73
2022/07/23 10:42:35;;;;;;;2.78;0.55;;;;;;;;;;5137964;27;20047;-72
2022/07/23 10:45:02;;;;;;;3.97;0.73;;;;;;;;;;5119391;27;20040;-72
2022/07/23 10:47:41;;;;;;;4.47;0.80;;;;;;;;;;5137951;27;20040;-72
2022/07/23 10:50:34;;;;;;;3.65;0.60;;;;;;;;;;5134319;27;20074;-74
2022/07/23 10:53:11;;;;;;;3.08;0.60;;;;;;;;;;5125823;27;20508;-72
2022/07/23 10:55:37;;;;;;;2.60;0.70;;;;;;;;;;5130447;27;20053;-73
2022/07/23 10:58:04;;;;;;;2.53;0.60;;;;;;;;;;5126002;27;20112;-72
2022/07/23 11:00:31;;;;;;;3.10;0.60;;;;;;;;;;5132557;27;20051;-73
2022/07/23 11:03:01;;;;;;;2.47;0.70;;;;;;;;;;5137366;27;20515;-72
2022/07/23 11:05:45;;;;;;;3.33;0.73;;;;;;;;;;5119163;27;20043;-72
2022/07/23 11:08:16;;;;;;;2.72;0.60;;;;;;;;;;5125037;27;20035;-72
2022/07/23 11:10:42;;;;;;;2.35;0.70;;;;;;;;;;5131346;27;20043;-73
2022/07/23 11:13:23;;;;;;;2.05;0.60;;;;;;;;;;5133015;27;20055;-71
2022/07/23 11:16:04;;;;;;;3.45;0.70;;;;;;;;;;5137081;27;20078;-72
2022/07/23 11:18:48;;;;;;;2.03;0.70;;;;;;;;;;5134211;27;20047;-73
2022/07/23 11:21:23;;;;;;;1.77;0.60;;;;;;;;;;5121513;27;20126;-72
2022/07/23 11:23:59;;;;;;;2.47;0.70;;;;;;;;;;5135107;27;20055;-72
2022/07/23 11:26:43;;;;;;;3.22;0.80;;;;;;;;;;5136828;27;20079;-72
2022/07/23 11:29:27;;;;;;;2.33;0.60;;;;;;;;;;5120161;27;20051;-73
2022/07/23 11:31:57;;;;;;;2.13;0.50;;;;;;;;;;5123800;27;20074;-72
2022/07/23 11:34:33;;;;;;;3.58;0.60;;;;;;;;;;5118529;27;20047;-73
2022/07/23 11:36:59;;;;;;;3.45;0.80;;;;;;;;;;5121366;27;20416;-71
2022/07/23 11:39:26;;;;;;;2.53;0.80;;;;;;;;;;5116252;28;20144;-73
2022/07/23 11:41:53;;;;;;;2.53;0.88;;;;;;;;;;5116132;27;20040;-72
2022/07/23 11:44:31;;;;;;;2.20;0.70;;;;;;;;;;5131211;27;20100;-72
2022/07/23 11:47:01;;;;;;;1.90;0.73;;;;;;;;;;5102835;27;20062;-72
2022/07/23 11:49:28;;;;;;;3.47;0.70;;;;;;;;;;5133320;27;20108;-71
2022/07/23 11:52:07;;;;;;;2.03;0.63;;;;;;;;;;5126468;27;20050;-72
2022/07/23 11:54:37;;;;;;;2.72;0.88;;;;;;;;;;5124323;27;20036;-71
2022/07/23 11:57:03;;;;;;;2.22;0.77;;;;;;;;;;5115630;27;20405;-72
2022/07/23 11:59:31;;;;;;;2.50;0.88;;;;;;;;;;5117824;27;20083;-72
2022/07/23 12:01:59;;;;;;;2.80;1.00;;;;;;;;;;5121836;27;20109;-72
2022/07/23 12:04:41;;;;;;;4.90;0.90;;;;;;;;;;5123962;27;20383;-72
2022/07/23 12:07:26;;;;;;;2.92;1.00;;;;;;;;;;5122790;27;20047;-73
2022/07/23 12:09:52;;;;;;;3.35;0.88;;;;;;;;;;5127170;27;20078;-72
2022/07/23 12:12:19;;;;;;;4.57;1.00;;;;;;;;;;5119778;27;20104;-72
2022/07/23 12:14:48;;;;;;;3.38;0.90;;;;;;;;;;5116157;28;20065;-72
2022/07/23 12:17:14;;;;;;;5.80;1.45;;;;;;;;;;5128222;27;20046;-72
2022/07/23 12:19:41;;;;;;;4.45;1.10;;;;;;;;;;5115901;27;20058;-72
2022/07/23 12:22:07;;;;;;;4.20;1.00;;;;;;;;;;5132502;27;20053;-73
2022/07/23 12:24:52;;;;;;;5.07;1.08;;;;;;;;;;5121738;27;20046;-73
2022/07/23 12:27:21;;;;;;;5.22;1.20;;;;;;;;;;5133241;27;20047;-71
2022/07/23 12:29:47;;;;;;;3.97;1.00;;;;;;;;;;5134028;27;20051;-71
2022/07/23 12:32:23;;;;;;;5.10;1.10;;;;;;;;;;5122639;27;20036;-74
2022/07/23 12:34:50;;;;;;;4.47;1.17;;;;;;;;;;5124730;27;20159;-72
2022/07/23 12:37:27;;;;;;;2.67;0.90;;;;;;;;;;5103183;27;20442;-72
2022/07/23 12:39:53;;;;;;;4.05;1.30;;;;;;;;;;5134131;27;20058;-72
2022/07/23 12:42:19;;;;;;;6.03;0.88;;;;;;;;;;5107129;27;20043;-72
2022/07/23 12:45:06;;;;;;;3.75;1.20;;;;;;;;;;5125067;27;20050;-73
2022/07/23 12:47:51;;;;;;;4.40;1.50;;;;;;;;;;5122593;27;20039;-71
2022/07/23 12:50:37;;;;;;;4.38;1.27;;;;;;;;;;5122332;27;20489;-72
2022/07/23 12:53:07;;;;;;;5.25;1.38;;;;;;;;;;5126302;27;20111;-72
2022/07/23 12:55:33;;;;;;;4.10;1.13;;;;;;;;;;5127635;27;20047;-71
2022/07/23 12:58:06;;;;;;;3.83;1.10;;;;;;;;;;5132014;27;20039;-73
2022/07/23 13:00:33;;;;;;;5.18;1.45;;;;;;;;;;5127977;27;20449;-72
2022/07/23 13:02:59;;;;;;;3.50;1.13;;;;;;;;;;5126675;27;20544;-72
2022/07/23 13:05:25;;;;;;;3.65;1.15;;;;;;;;;;5125976;27;20382;-72
2022/07/23 13:07:51;;;;;;;4.22;1.30;;;;;;;;;;5124641;27;20627;-71
2022/07/23 13:10:17;;;;;;;5.03;1.20;;;;;;;;;;5109198;27;20035;-73
2022/07/23 13:12:43;;;;;;;4.10;1.10;;;;;;;;;;5118836;27;20039;-73
2022/07/23 13:15:09;;;;;;;4.47;1.10;;;;;;;;;;5118882;27;20040;-72
2022/07/23 13:17:36;;;;;;;5.63;1.20;;;;;;;;;;5127538;27;20050;-70
2022/07/23 13:20:02;;;;;;;3.63;1.10;;;;;;;;;;5120409;27;20036;-71
2022/07/23 13:22:28;;;;;;;4.32;1.20;;;;;;;;;;5122260;27;20044;-72
2022/07/23 13:24:54;;;;;;;3.38;1.20;;;;;;;;;;5118133;27;20520;-73
2022/07/23 13:27:20;;;;;;;4.70;1.23;;;;;;;;;;5121702;27;20036;-71
2022/07/23 13:29:46;;;;;;;3.80;1.10;;;;;;;;;;5131669;27;20043;-71
2022/07/23 13:32:13;;;;;;;4.70;1.45;;;;;;;;;;5122045;27;20118;-71
2022/07/23 13:34:39;;;;;;;4.63;1.45;;;;;;;;;;5121148;27;20032;-70
2022/07/23 13:37:05;;;;;;;3.15;0.93;;;;;;;;;;5121588;27;20601;-72
2022/07/23 13:39:31;;;;;;;4.38;1.00;;;;;;;;;;5122234;27;20051;-72
2022/07/23 13:41:57;;;;;;;5.00;1.38;;;;;;;;;;5124104;27;20500;-72
2022/07/23 13:44:23;;;;;;;2.97;1.23;;;;;;;;;;5120128;27;20039;-72
2022/07/23 13:46:49;;;;;;;3.28;1.10;;;;;;;;;;5119777;27;20572;-71
2022/07/23 13:49:15;;;;;;;4.15;1.10;;;;;;;;;;5101345;28;20062;-71
2022/07/23 13:51:41;;;;;;;3.60;1.27;;;;;;;;;;5119816;27;20047;-72
2022/07/23 13:54:07;;;;;;;3.55;1.10;;;;;;;;;;5124525;27;20076;-72
2022/07/23 13:56:33;;;;;;;4.57;1.08;;;;;;;;;;5123890;27;20039;-72
2022/07/23 13:58:59;;;;;;;3.10;1.10;;;;;;;;;;5131398;27;20130;-72
2022/07/23 14:01:25;;;;;;;3.47;1.10;;;;;;;;;;5105658;28;20051;-73
2022/07/23 14:03:51;;;;;;;4.43;1.08;;;;;;;;;;5118056;27;20042;-74
2022/07/23 14:06:18;;;;;;;4.10;1.30;;;;;;;;;;5110070;28;20084;-73
2022/07/23 14:08:44;;;;;;;3.63;1.08;;;;;;;;;;5127984;28;20059;-71
2022/07/23 14:11:10;;;;;;;3.20;1.05;;;;;;;;;;5115761;28;20038;-72
2022/07/23 14:13:36;;;;;;;6.10;1.10;;;;;;;;;;5124162;28;20043;-72
2022/07/23 14:16:02;;;;;;;5.75;1.27;;;;;;;;;;5133130;28;20044;-73
2022/07/23 14:18:28;;;;;;;3.47;1.10;;;;;;;;;;5133381;28;20125;-72
2022/07/23 14:20:54;;;;;;;4.50;1.13;;;;;;;;;;5127945;28;20517;-72
2022/07/23 14:23:20;;;;;;;5.32;1.02;;;;;;;;;;5119038;28;20035;-71
2022/07/23 14:25:46;;;;;;;3.78;1.05;;;;;;;;;;5119175;28;20405;-71
2022/07/23 14:28:12;;;;;;;5.55;1.20;;;;;;;;;;5118723;28;20127;-72
2022/07/23 14:30:38;;;;;;;3.95;1.17;;;;;;;;;;5123278;28;20046;-72
2022/07/23 14:33:04;;;;;;;4.47;1.10;;;;;;;;;;5115491;28;20043;-71
2022/07/23 14:35:30;;;;;;;4.32;1.20;;;;;;;;;;5097305;28;20040;-72
2022/07/23 14:37:56;;;;;;;3.05;1.20;;;;;;;;;;5121125;28;20395;-72
2022/07/23 14:40:22;;;;;;;5.38;1.20;;;;;;;;;;5118677;28;20054;-72
2022/07/23 14:42:48;;;;;;;4.10;1.00;;;;;;;;;;5127510;28;20046;-72
2022/07/23 14:45:14;;;;;;;3.10;1.00;;;;;;;;;;5118852;28;20118;-72